Vancouver International Airport
CYVR : now visible

Airfield :











YOU CAN JOIN US ON...

 
LOGIN :

Register | Disclaimer

   EN    FR    IT 

 









Legend :    VFR   Marginal VFR   IFR   Intensive IFR   Very Intensive IFR
Visi :
Ceiling :
>= 8 km
>= 3000ft
5 to 8 km
1000 to 3000 ft
1500m to 5 km
500 to 1000 ft
800 to 1500m
200 to 500 ft
< 800m
< 200 ft
Symbols :   Thunderstorms  Fog  Heavy snow  Heavy precipitations  Wind > 20 kt






- Airport Elevation : 14 ft
- IATA code : YVR


CYVR - Vancouver International

CURRENT METAR :
  • 022000Z 08008KT 070V150 20SM FEW030 SCT042 SCT140 09/00 A3018 RMK CU1SC2AC1 SLP220

EXPIRED METARs :
  • 021900Z 10009KT 20SM FEW030 BKN046 BKN140 07/M02 A3019 RMK CU1SC5AC1 AC TR SLP223
  • 021800Z 07010KT 20SM FEW026 BKN041 05/M02 A3020 RMK CU1SC7 CU TR SLP227
  • 021700Z 09009KT 20SM FEW024 BKN034 04/M02 A3020 RMK CU1SC7 CU TR SN NW-NE SLP227

TAF TAF CYVR
Valid from the 02 at 18:00 until the 04 at 00:00 UTC


021738Z 0218/0324 09010KT P6SM FEW020 BKN040
TEMPO 0218/0221 P6SM -SHRA BKN020
BECMG 0221/0223 13008KT
FM030200 13008KT P6SM SCT020 BKN040
BECMG 0306/0308 26008KT
FM031000 26006KT P6SM BKN030
TEMPO 0310/0320 P6SM -SHRA BKN015
BECMG 0313/0315 27012KT RMK NXT FCST BY 022100Z



MET'MAP, your aeronautical weather chart ! - Copyright ORBIFLY December 2007 - Disclaimer

ORBIFLY MET'MAP TEAM :

Programming & Development : Alexandra Zaïnal
Concept & original design : Baudouin d'Aumeries
Assistance for programming : Marc-Olivier Méhu
Technical & hardware support : Manuel Goepfert

Contact : metmap@orbifly.com




SOURCES & CREDITS :

   NOAA       Earth
Advisory